Time;durP1;ratioP1;P1;durP2;ratioP2;P2;SDS_P1;SDS_P2;PMS_P1;PMS_P2;Temp;Humidity;BMP_temperature;BMP_pressure;BME280_temperature;BME280_humidity;BME280_pressure;Samples;Min_cycle;Max_cycle;Signal;HPM_P1;HPM_P2
2023/04/22 00:02:15;;;;;;;6.40;5.70;;;24.00;42.40;;;;;;5070562;28;20508;-82
2023/04/22 00:04:46;;;;;;;6.70;5.60;;;24.00;42.40;;;;;;5080421;28;20444;-82
2023/04/22 00:07:15;;;;;;;8.70;5.60;;;24.00;42.60;;;;;;5064878;28;20469;-82
2023/04/22 00:09:43;;;;;;;8.17;6.50;;;24.00;42.50;;;;;;5068532;28;20475;-82
2023/04/22 00:12:11;;;;;;;8.33;6.20;;;24.00;42.50;;;;;;5070174;28;20449;-82
2023/04/22 00:14:39;;;;;;;7.70;6.47;;;24.00;42.50;;;;;;5064476;28;20504;-84
2023/04/22 00:17:07;;;;;;;9.87;7.13;;;23.90;42.50;;;;;;5066651;28;20442;-82
2023/04/22 00:19:35;;;;;;;8.43;6.00;;;23.90;42.50;;;;;;5065383;28;20513;-83
2023/04/22 00:22:05;;;;;;;7.37;5.97;;;23.90;42.50;;;;;;5067074;28;20456;-82
2023/04/22 00:24:34;;;;;;;7.37;6.40;;;23.90;42.60;;;;;;5070895;28;20525;-85
2023/04/22 00:27:02;;;;;;;7.80;7.00;;;23.90;42.50;;;;;;5075678;28;20409;-83
2023/04/22 00:29:30;;;;;;;6.27;5.67;;;23.80;42.50;;;;;;5077478;28;20444;-82
2023/04/22 00:31:58;;;;;;;11.57;6.33;;;23.80;42.50;;;;;;5070779;28;20491;-82
2023/04/22 00:34:27;;;;;;;8.50;6.20;;;23.80;42.60;;;;;;5077888;28;20484;-81
2023/04/22 00:36:58;;;;;;;6.70;5.97;;;23.80;42.70;;;;;;5079559;28;20457;-82
2023/04/22 00:39:28;;;;;;;7.20;6.13;;;23.80;42.60;;;;;;5074482;28;20465;-81
2023/04/22 00:41:56;;;;;;;8.00;6.13;;;23.80;42.80;;;;;;5075920;28;20537;-82
2023/04/22 00:44:25;;;;;;;7.50;6.07;;;23.80;42.80;;;;;;5069181;28;20458;-82
2023/04/22 00:46:53;;;;;;;10.70;6.83;;;23.80;42.70;;;;;;5077873;28;20414;-81
2023/04/22 00:49:21;;;;;;;8.60;6.30;;;23.80;42.90;;;;;;5080737;28;20433;-81
2023/04/22 00:51:49;;;;;;;7.53;5.83;;;23.70;42.80;;;;;;5072730;28;20529;-81
2023/04/22 00:54:17;;;;;;;8.87;6.87;;;23.70;43.10;;;;;;5073360;28;20466;-83
2023/04/22 00:56:47;;;;;;;13.30;7.20;;;23.70;42.90;;;;;;5073233;28;20502;-81
2023/04/22 00:59:15;;;;;;;9.63;6.43;;;23.70;43.60;;;;;;5076496;28;20425;-81
2023/04/22 01:01:43;;;;;;;10.70;6.60;;;23.70;43.10;;;;;;5075763;28;20432;-81
2023/04/22 01:04:13;;;;;;;10.43;6.27;;;23.70;43.10;;;;;;5077125;28;20552;-82
2023/04/22 01:06:41;;;;;;;8.43;6.20;;;23.70;43.10;;;;;;5082058;28;20444;-82
2023/04/22 01:09:09;;;;;;;10.30;6.70;;;23.70;43.00;;;;;;5079957;28;20422;-82
2023/04/22 01:11:37;;;;;;;7.53;6.50;;;23.70;42.90;;;;;;5075618;28;20462;-82
2023/04/22 01:14:07;;;;;;;8.87;6.70;;;23.60;43.10;;;;;;5077497;28;20442;-82
2023/04/22 01:16:37;;;;;;;7.63;6.10;;;23.60;43.10;;;;;;5076142;28;20493;-82
2023/04/22 01:19:07;;;;;;;6.93;6.20;;;23.60;43.20;;;;;;5082497;28;20434;-82
2023/04/22 01:21:35;;;;;;;7.40;6.50;;;23.50;43.10;;;;;;5091248;28;20443;-82
2023/04/22 01:24:05;;;;;;;6.73;6.13;;;23.50;43.10;;;;;;5086628;28;20452;-82
2023/04/22 01:26:34;;;;;;;6.53;5.90;;;23.50;43.00;;;;;;5092030;28;20441;-81
2023/04/22 01:29:02;;;;;;;7.30;5.97;;;23.50;43.20;;;;;;5090428;28;20460;-82
2023/04/22 01:31:30;;;;;;;7.93;5.90;;;23.50;43.20;;;;;;5086035;28;20485;-82
2023/04/22 01:33:59;;;;;;;18.33;6.73;;;23.50;43.20;;;;;;5091160;28;20442;-82
2023/04/22 01:36:28;;;;;;;8.10;6.40;;;23.40;43.40;;;;;;5086650;28;20465;-83
2023/04/22 01:38:56;;;;;;;6.23;5.63;;;23.50;43.40;;;;;;5082316;28;20483;-82
2023/04/22 01:41:25;;;;;;;7.47;6.50;;;23.50;43.30;;;;;;5081010;28;20488;-82
2023/04/22 01:43:53;;;;;;;8.20;6.40;;;23.40;43.20;;;;;;5091333;28;20463;-82
2023/04/22 01:46:22;;;;;;;6.83;6.13;;;23.40;43.50;;;;;;5080793;28;20438;-82
2023/04/22 01:48:50;;;;;;;7.43;6.07;;;23.40;43.50;;;;;;5076628;28;20430;-82
2023/04/22 01:51:19;;;;;;;8.40;6.50;;;23.40;43.50;;;;;;5091125;28;20492;-82
2023/04/22 01:53:47;;;;;;;6.83;5.90;;;23.30;43.30;;;;;;5086029;28;20440;-83
2023/04/22 01:56:15;;;;;;;7.03;6.20;;;23.30;43.40;;;;;;5089307;28;20476;-83
2023/04/22 01:58:45;;;;;;;7.53;6.77;;;23.30;43.50;;;;;;5089302;28;20485;-83
2023/04/22 02:01:13;;;;;;;7.87;6.30;;;23.30;43.50;;;;;;5084309;28;20466;-82
2023/04/22 02:03:42;;;;;;;8.57;6.27;;;23.30;43.70;;;;;;5082532;28;20447;-82
2023/04/22 02:06:10;;;;;;;7.77;6.13;;;23.30;43.70;;;;;;5090933;28;20433;-84
2023/04/22 02:08:38;;;;;;;7.67;6.30;;;23.30;43.70;;;;;;5085112;28;20484;-81
2023/04/22 02:11:06;;;;;;;8.60;6.60;;;23.30;43.70;;;;;;5081324;28;20470;-81
2023/04/22 02:13:35;;;;;;;7.30;6.53;;;23.30;43.60;;;;;;5084970;28;20554;-81
2023/04/22 02:16:05;;;;;;;6.70;6.00;;;23.20;43.70;;;;;;5087683;28;20526;-82
2023/04/22 02:18:33;;;;;;;8.07;6.40;;;23.10;43.80;;;;;;5084787;28;20441;-82
2023/04/22 02:21:01;;;;;;;5.90;5.40;;;23.10;43.70;;;;;;5081213;28;20461;-82
2023/04/22 02:23:30;;;;;;;6.60;6.00;;;23.10;43.70;;;;;;5086999;28;20442;-81
2023/04/22 02:25:58;;;;;;;6.80;6.20;;;23.10;43.60;;;;;;5088174;28;20457;-81
2023/04/22 02:28:26;;;;;;;9.30;6.53;;;23.10;43.80;;;;;;5084081;28;20534;-82
2023/04/22 02:30:55;;;;;;;7.50;6.00;;;23.10;44.00;;;;;;5082900;28;20536;-82
2023/04/22 02:33:24;;;;;;;8.90;6.10;;;23.00;43.80;;;;;;5082679;28;20438;-81
2023/04/22 02:35:53;;;;;;;6.67;6.07;;;23.00;43.90;;;;;;5087627;28;20476;-82
2023/04/22 02:38:21;;;;;;;10.90;5.63;;;23.00;43.90;;;;;;5077961;28;20446;-82
2023/04/22 02:40:49;;;;;;;6.97;6.37;;;23.00;44.00;;;;;;5086507;28;20481;-81
2023/04/22 02:43:17;;;;;;;11.10;6.37;;;22.90;44.10;;;;;;5081253;28;20453;-83
2023/04/22 02:45:45;;;;;;;7.03;5.53;;;22.90;43.90;;;;;;5078814;28;20443;-82
2023/04/22 02:48:13;;;;;;;7.00;6.20;;;22.90;44.00;;;;;;5086097;28;20511;-84
2023/04/22 02:50:42;;;;;;;9.17;6.40;;;22.90;44.00;;;;;;5088331;28;20462;-82
2023/04/22 02:53:10;;;;;;;7.27;6.40;;;22.90;44.00;;;;;;5088472;28;20456;-83
2023/04/22 02:55:39;;;;;;;8.70;6.20;;;22.80;44.00;;;;;;5087796;28;20422;-82
2023/04/22 02:58:07;;;;;;;8.90;6.13;;;22.80;44.10;;;;;;5081103;28;20434;-82
2023/04/22 03:00:35;;;;;;;6.93;6.30;;;22.80;44.20;;;;;;5087953;28;20450;-82
2023/04/22 03:03:03;;;;;;;7.77;6.07;;;22.80;44.10;;;;;;5081266;28;20436;-82
2023/04/22 03:05:31;;;;;;;5.77;5.27;;;22.80;44.20;;;;;;5083382;28;20429;-83
2023/04/22 03:08:01;;;;;;;6.80;6.17;;;22.70;44.30;;;;;;5075196;28;20453;-81
2023/04/22 03:10:29;;;;;;;6.70;6.00;;;22.80;44.20;;;;;;5072869;28;20532;-81
2023/04/22 03:12:57;;;;;;;7.53;6.00;;;22.70;44.30;;;;;;5081111;28;20456;-79
2023/04/22 03:15:25;;;;;;;6.57;5.87;;;22.70;44.30;;;;;;5080477;28;20441;-81
2023/04/22 03:17:53;;;;;;;6.53;5.93;;;22.70;44.30;;;;;;5066966;28;20475;-81
2023/04/22 03:20:23;;;;;;;7.83;6.00;;;22.70;44.30;;;;;;5075722;28;20469;-81
2023/04/22 03:22:52;;;;;;;10.80;5.60;;;22.70;44.40;;;;;;5067173;28;20453;-82
2023/04/22 03:25:21;;;;;;;6.60;5.87;;;22.60;44.50;;;;;;5075207;28;20438;-81
2023/04/22 03:27:50;;;;;;;6.20;5.70;;;22.60;44.40;;;;;;5077826;28;20436;-82
2023/04/22 03:30:19;;;;;;;10.20;6.60;;;22.60;44.50;;;;;;5073231;28;20463;-82
2023/04/22 03:32:52;;;;;;;10.47;5.87;;;22.60;44.50;;;;;;5075267;28;20445;-82
2023/04/22 03:35:23;;;;;;;8.13;6.40;;;22.50;44.50;;;;;;5066339;28;20513;-82
2023/04/22 03:37:52;;;;;;;6.97;6.10;;;22.50;44.60;;;;;;5071986;28;20698;-82
2023/04/22 03:40:21;;;;;;;8.53;6.80;;;22.50;44.60;;;;;;5079006;28;20457;-82
2023/04/22 03:42:49;;;;;;;7.50;6.40;;;22.50;44.60;;;;;;5064495;28;20534;-82
2023/04/22 03:45:19;;;;;;;7.00;6.30;;;22.40;44.70;;;;;;5072902;28;20447;-82
2023/04/22 03:47:47;;;;;;;8.47;6.77;;;22.40;44.60;;;;;;5075945;28;20446;-82
2023/04/22 03:50:16;;;;;;;6.90;6.17;;;22.50;44.80;;;;;;5074134;28;20540;-82
2023/04/22 03:52:44;;;;;;;6.63;6.03;;;22.40;44.40;;;;;;5081378;28;20446;-81
2023/04/22 03:55:12;;;;;;;8.37;5.90;;;22.40;44.60;;;;;;5080638;28;20451;-81
2023/04/22 03:57:42;;;;;;;6.70;6.00;;;22.30;44.70;;;;;;5081263;28;20560;-82
2023/04/22 04:00:10;;;;;;;6.27;5.67;;;22.30;44.60;;;;;;5081575;28;20468;-82
2023/04/22 04:02:38;;;;;;;8.13;6.83;;;22.30;44.60;;;;;;5081035;28;20424;-82
2023/04/22 04:05:08;;;;;;;13.43;7.30;;;22.20;44.70;;;;;;5073605;28;20417;-81
2023/04/22 04:07:36;;;;;;;11.23;8.43;;;22.20;44.60;;;;;;5077963;28;20417;-81
2023/04/22 04:10:04;;;;;;;13.47;9.40;;;22.20;44.90;;;;;;5074084;28;20484;-81
2023/04/22 04:12:32;;;;;;;11.43;8.47;;;22.20;44.80;;;;;;5073899;28;20445;-82
2023/04/22 04:15:02;;;;;;;14.00;9.80;;;22.20;44.90;;;;;;5081682;28;20468;-82
2023/04/22 04:17:30;;;;;;;12.93;9.13;;;22.20;44.70;;;;;;5070398;28;20472;-83
2023/04/22 04:19:58;;;;;;;11.37;9.77;;;22.20;44.90;;;;;;5065262;28;20470;-81
2023/04/22 04:22:26;;;;;;;12.37;9.67;;;22.20;45.00;;;;;;5063120;28;20453;-81
2023/04/22 04:24:54;;;;;;;11.50;10.20;;;22.10;44.80;;;;;;5076109;28;20492;-81
2023/04/22 04:27:23;;;;;;;14.80;10.07;;;22.10;44.90;;;;;;5080857;28;20484;-81
2023/04/22 04:29:51;;;;;;;12.80;10.50;;;22.10;45.00;;;;;;5081631;28;20423;-81
2023/04/22 04:32:21;;;;;;;15.50;11.10;;;22.10;45.00;;;;;;5082282;28;20416;-81
2023/04/22 04:34:49;;;;;;;16.97;10.90;;;22.10;45.00;;;;;;5069058;28;20435;-82
2023/04/22 04:37:17;;;;;;;15.23;11.03;;;22.10;45.00;;;;;;5084292;28;20469;-82
2023/04/22 04:39:45;;;;;;;15.77;11.20;;;22.10;45.00;;;;;;5082860;28;20450;-80
2023/04/22 04:42:14;;;;;;;16.03;11.47;;;22.10;45.10;;;;;;5074367;28;20537;-80
2023/04/22 04:44:42;;;;;;;15.03;11.60;;;22.10;45.00;;;;;;5079423;28;20454;-81
2023/04/22 04:47:11;;;;;;;15.00;12.10;;;22.00;45.00;;;;;;5084740;28;20513;-83
2023/04/22 04:49:42;;;;;;;17.40;12.47;;;22.10;45.10;;;;;;5080385;28;20437;-81
2023/04/22 04:52:10;;;;;;;16.07;11.27;;;22.00;45.00;;;;;;5084299;28;20446;-81
2023/04/22 04:54:38;;;;;;;13.30;11.13;;;22.00;45.10;;;;;;5081392;28;20517;-81
2023/04/22 04:57:08;;;;;;;15.07;11.77;;;22.00;45.10;;;;;;5088505;28;20545;-80
2023/04/22 04:59:37;;;;;;;17.03;10.90;;;22.00;45.20;;;;;;5084143;28;20440;-82
2023/04/22 05:02:05;;;;;;;15.57;11.20;;;22.00;45.10;;;;;;5081421;28;20499;-81
2023/04/22 05:04:33;;;;;;;17.20;11.70;;;22.10;45.10;;;;;;5078686;28;20441;-81
2023/04/22 05:07:04;;;;;;;13.10;10.43;;;22.10;45.10;;;;;;5078468;28;20505;-81
2023/04/22 05:09:35;;;;;;;13.70;10.87;;;22.10;45.00;;;;;;5082845;28;20440;-81
2023/04/22 05:12:04;;;;;;;16.23;11.60;;;22.10;45.10;;;;;;5088884;28;20446;-82
2023/04/22 05:14:32;;;;;;;16.40;12.00;;;22.10;45.00;;;;;;5089590;28;20429;-81
2023/04/22 05:17:00;;;;;;;16.03;10.93;;;22.10;45.00;;;;;;5089998;28;20515;-82
2023/04/22 05:19:28;;;;;;;15.90;11.10;;;22.10;45.00;;;;;;5082505;28;20451;-81
2023/04/22 05:21:57;;;;;;;14.10;11.63;;;22.10;45.00;;;;;;5089036;28;20477;-80
2023/04/22 05:24:26;;;;;;;13.13;10.40;;;22.20;45.00;;;;;;5083754;28;20453;-83
2023/04/22 05:26:54;;;;;;;13.13;10.60;;;22.20;44.90;;;;;;5084684;28;20441;-81
2023/04/22 05:29:22;;;;;;;15.50;11.37;;;22.20;44.80;;;;;;5085015;28;20440;-82
2023/04/22 05:31:51;;;;;;;12.63;10.30;;;22.20;44.70;;;;;;5085298;28;20532;-82
2023/04/22 05:34:19;;;;;;;11.33;9.50;;;22.20;44.60;;;;;;5078624;28;20446;-82
2023/04/22 05:36:47;;;;;;;12.47;10.63;;;22.20;44.80;;;;;;5077929;28;20452;-81
2023/04/22 05:39:15;;;;;;;12.60;10.83;;;22.20;44.80;;;;;;5080306;28;20462;-81
2023/04/22 05:41:44;;;;;;;14.30;10.70;;;22.20;44.80;;;;;;5084623;28;20496;-81
2023/04/22 05:44:13;;;;;;;13.27;10.20;;;22.30;44.70;;;;;;5089260;28;20445;-81
2023/04/22 05:46:41;;;;;;;11.67;9.90;;;22.20;44.70;;;;;;5083499;28;20968;-81
2023/04/22 05:49:10;;;;;;;13.63;10.00;;;22.30;44.80;;;;;;5077761;28;20472;-82
2023/04/22 05:51:38;;;;;;;12.67;10.10;;;22.30;44.70;;;;;;5077664;28;20469;-80
2023/04/22 05:54:06;;;;;;;12.87;9.60;;;22.30;44.80;;;;;;5086377;28;20432;-81
2023/04/22 05:56:34;;;;;;;12.23;9.93;;;22.30;44.50;;;;;;5083431;28;20445;-82
2023/04/22 05:59:03;;;;;;;11.20;9.90;;;22.30;44.70;;;;;;5088704;28;20472;-82
2023/04/22 06:01:32;;;;;;;10.70;9.60;;;22.30;44.80;;;;;;5083713;28;20473;-81
2023/04/22 06:04:00;;;;;;;14.00;10.10;;;22.30;44.70;;;;;;5085591;28;20465;-79
2023/04/22 06:06:30;;;;;;;12.83;10.20;;;22.30;44.60;;;;;;5082021;28;20442;-80
2023/04/22 06:08:58;;;;;;;11.53;10.23;;;22.40;44.70;;;;;;5087194;28;21046;-81
2023/04/22 06:11:27;;;;;;;10.70;9.60;;;22.40;44.60;;;;;;5069700;28;20556;-81
2023/04/22 06:13:54;;;;;;;10.83;9.07;;;22.40;44.90;;;;;;5082538;28;20452;-82
2023/04/22 06:16:25;;;;;;;11.90;8.83;;;22.40;44.50;;;;;;5083447;28;20529;-81
2023/04/22 06:18:53;;;;;;;9.53;8.53;;;22.50;44.80;;;;;;5083275;28;20500;-82
2023/04/22 06:21:21;;;;;;;10.30;9.20;;;22.50;44.50;;;;;;5079442;28;20468;-80
2023/04/22 06:23:49;;;;;;;10.47;8.77;;;22.50;44.50;;;;;;5079119;28;20438;-81
2023/04/22 06:26:17;;;;;;;10.87;9.03;;;22.50;44.50;;;;;;5083729;28;20448;-82
2023/04/22 06:28:45;;;;;;;9.50;8.50;;;22.60;44.40;;;;;;5081511;28;20438;-81
2023/04/22 06:31:13;;;;;;;11.20;8.80;;;22.70;44.40;;;;;;5083757;28;20457;-82
2023/04/22 06:33:42;;;;;;;11.00;8.50;;;22.70;44.40;;;;;;5086451;28;20446;-82
2023/04/22 06:36:11;;;;;;;10.37;8.77;;;22.70;44.10;;;;;;5086691;28;20448;-81
2023/04/22 06:38:39;;;;;;;11.43;8.80;;;22.80;44.20;;;;;;5082173;28;20478;-80
2023/04/22 06:41:07;;;;;;;10.07;8.40;;;22.80;44.20;;;;;;5077557;28;20468;-82
2023/04/22 06:43:35;;;;;;;10.60;8.00;;;22.90;44.10;;;;;;5077079;28;20458;-81
2023/04/22 06:46:03;;;;;;;9.40;8.40;;;22.90;44.00;;;;;;5085843;28;20449;-82
2023/04/22 06:48:31;;;;;;;11.60;8.80;;;23.00;44.00;;;;;;5084073;28;20445;-81
2023/04/22 06:51:01;;;;;;;9.87;8.87;;;23.00;43.80;;;;;;5078759;28;20521;-81
2023/04/22 06:53:28;;;;;;;9.50;8.50;;;23.00;43.80;;;;;;5074675;28;21079;-81
2023/04/22 06:55:56;;;;;;;11.90;8.80;;;23.10;43.70;;;;;;5086996;28;20450;-81
2023/04/22 06:58:25;;;;;;;9.90;8.63;;;23.10;43.80;;;;;;5086239;28;20472;-82
2023/04/22 07:00:53;;;;;;;11.13;9.00;;;23.10;43.80;;;;;;5075385;28;20474;-81
2023/04/22 07:03:21;;;;;;;10.60;8.70;;;23.10;43.90;;;;;;5077381;28;20451;-82
2023/04/22 07:05:49;;;;;;;9.10;8.20;;;23.20;43.70;;;;;;5086886;28;20438;-81
2023/04/22 07:08:18;;;;;;;10.00;7.90;;;23.30;43.80;;;;;;5076055;28;20450;-81
2023/04/22 07:10:46;;;;;;;11.10;8.93;;;23.30;43.60;;;;;;5074190;28;20490;-82
2023/04/22 07:13:15;;;;;;;10.70;8.60;;;23.30;43.70;;;;;;5084665;28;20505;-82
2023/04/22 07:15:45;;;;;;;10.40;9.10;;;23.40;43.50;;;;;;5082894;28;20436;-81
2023/04/22 07:18:13;;;;;;;9.70;8.70;;;23.50;43.60;;;;;;5085137;28;20426;-81
2023/04/22 07:20:40;;;;;;;10.93;9.27;;;23.50;43.60;;;;;;5073220;28;20524;-80
2023/04/22 07:23:08;;;;;;;13.33;9.67;;;23.60;43.60;;;;;;5071378;28;20442;-81
2023/04/22 07:25:38;;;;;;;10.60;9.50;;;23.60;43.50;;;;;;5085048;28;20938;-80
2023/04/22 07:28:06;;;;;;;10.57;9.20;;;23.70;43.60;;;;;;5078769;28;20442;-80
2023/04/22 07:30:34;;;;;;;12.90;9.20;;;23.70;43.40;;;;;;5068267;28;20497;-81
2023/04/22 07:33:02;;;;;;;10.70;9.60;;;23.80;43.40;;;;;;5074278;28;20450;-81
2023/04/22 07:35:30;;;;;;;12.73;9.93;;;23.90;43.50;;;;;;5077286;28;20442;-81
2023/04/22 07:37:59;;;;;;;11.10;9.50;;;23.90;43.40;;;;;;5072173;28;20470;-80
2023/04/22 07:40:27;;;;;;;12.67;9.87;;;24.00;43.40;;;;;;5071901;28;20474;-80
2023/04/22 07:42:57;;;;;;;11.30;9.00;;;24.10;43.30;;;;;;5071025;28;20442;-80
2023/04/22 07:45:31;;;;;;;12.47;10.43;;;24.10;43.20;;;;;;5072507;28;20421;-82
2023/04/22 07:47:59;;;;;;;11.13;9.10;;;24.20;43.10;;;;;;5074183;28;20828;-83
2023/04/22 07:50:27;;;;;;;11.30;10.10;;;24.30;43.10;;;;;;5065784;28;20458;-80
2023/04/22 07:52:59;;;;;;;9.00;8.10;;;24.30;43.70;;;;;;5068274;28;20478;-77
2023/04/22 07:55:28;;;;;;;7.03;6.43;;;24.40;43.70;;;;;;5058658;28;20473;-77
2023/04/22 07:57:59;;;;;;;8.47;6.10;;;24.80;45.30;;;;;;5063253;28;20508;-76
2023/04/22 08:00:28;;;;;;;13.90;6.27;;;25.00;45.80;;;;;;5058580;28;20444;-77
2023/04/22 08:02:58;;;;;;;14.50;6.67;;;25.20;46.00;;;;;;5061084;28;20449;-77
2023/04/22 08:05:31;;;;;;;8.00;6.70;;;25.30;45.80;;;;;;5062569;28;20413;-77
2023/04/22 08:08:04;;;;;;;8.83;6.40;;;25.40;45.60;;;;;;5061736;28;20413;-77
2023/04/22 08:10:40;;;;;;;6.57;6.00;;;25.50;45.50;;;;;;5058675;28;20458;-77
2023/04/22 08:13:15;;;;;;;6.73;5.73;;;25.60;45.40;;;;;;5073814;28;20490;-78
2023/04/22 08:15:45;;;;;;;8.60;6.10;;;25.80;45.30;;;;;;5061629;28;20437;-77
2023/04/22 08:18:12;;;;;;;8.40;7.03;;;25.90;45.10;;;;;;5061812;28;20424;-77
2023/04/22 08:20:40;;;;;;;8.60;6.67;;;26.20;45.20;;;;;;5061716;28;20453;-77
2023/04/22 08:23:09;;;;;;;9.63;6.80;;;26.30;44.80;;;;;;5061832;28;20442;-78
2023/04/22 08:25:39;;;;;;;7.40;6.70;;;26.50;44.10;;;;;;5056047;28;20496;-75
2023/04/22 08:28:07;;;;;;;8.33;6.80;;;26.50;43.80;;;;;;5059653;28;20994;-76
2023/04/22 08:30:37;;;;;;;7.20;6.50;;;26.50;43.60;;;;;;5062059;28;20520;-77
2023/04/22 08:33:05;;;;;;;6.90;6.30;;;26.50;43.60;;;;;;5053650;28;20492;-77
2023/04/22 08:35:34;;;;;;;6.57;6.07;;;26.50;43.60;;;;;;5059503;28;20441;-78
2023/04/22 08:38:02;;;;;;;7.57;6.43;;;26.40;43.50;;;;;;5072046;28;20422;-77
2023/04/22 08:40:30;;;;;;;7.50;6.80;;;26.40;43.60;;;;;;5068170;28;20471;-77
2023/04/22 08:42:58;;;;;;;7.40;6.43;;;26.40;43.50;;;;;;5065483;28;20416;-76
2023/04/22 08:45:26;;;;;;;9.10;6.60;;;26.40;43.50;;;;;;5054847;28;20423;-77
2023/04/22 08:47:56;;;;;;;7.03;6.40;;;26.40;43.60;;;;;;5067231;28;20426;-75
2023/04/22 08:50:25;;;;;;;7.17;6.37;;;26.40;43.60;;;;;;5060504;28;20464;-76
2023/04/22 08:52:53;;;;;;;6.90;6.30;;;26.40;43.70;;;;;;5064698;28;20491;-77
2023/04/22 08:55:21;;;;;;;8.70;6.30;;;26.50;43.80;;;;;;5063293;28;20809;-77
2023/04/22 08:57:49;;;;;;;6.63;6.03;;;26.60;43.80;;;;;;5058332;28;20872;-77
2023/04/22 09:00:18;;;;;;;6.77;6.23;;;26.70;43.50;;;;;;5066837;28;20588;-77
2023/04/22 09:02:49;;;;;;;7.77;6.40;;;27.00;43.40;;;;;;5059027;28;20458;-77
2023/04/22 09:05:18;;;;;;;6.97;6.37;;;27.00;43.00;;;;;;5060614;28;20451;-77
2023/04/22 09:07:46;;;;;;;8.40;6.10;;;27.20;43.00;;;;;;5069536;28;20446;-77
2023/04/22 09:10:14;;;;;;;6.53;5.93;;;27.30;42.90;;;;;;5067397;28;20462;-77
2023/04/22 09:12:44;;;;;;;8.30;6.17;;;27.50;42.80;;;;;;5061026;28;20425;-77
2023/04/22 09:15:13;;;;;;;6.60;6.00;;;27.60;42.50;;;;;;5069586;28;20441;-79
2023/04/22 09:17:42;;;;;;;12.73;6.60;;;27.60;42.20;;;;;;5063208;28;20829;-77
2023/04/22 09:20:11;;;;;;;11.33;7.00;;;27.70;42.40;;;;;;5067277;28;20448;-76
2023/04/22 09:22:42;;;;;;;10.70;6.27;;;27.80;42.50;;;;;;5070063;28;20428;-76
2023/04/22 09:25:17;;;;;;;8.07;6.60;;;28.00;42.40;;;;;;5072398;28;20507;-76
2023/04/22 09:27:49;;;;;;;7.03;6.10;;;28.10;42.20;;;;;;5071865;28;20450;-76
2023/04/22 09:30:19;;;;;;;11.70;5.80;;;28.30;42.20;;;;;;5059552;28;20868;-76
2023/04/22 09:32:53;;;;;;;8.03;6.50;;;28.30;42.00;;;;;;5063819;28;20461;-76
2023/04/22 09:35:28;;;;;;;10.20;6.20;;;28.40;41.90;;;;;;5062817;28;20429;-76
2023/04/22 09:37:58;;;;;;;7.50;5.97;;;28.50;41.70;;;;;;5058732;28;20504;-76
2023/04/22 09:40:27;;;;;;;7.97;6.53;;;28.60;41.60;;;;;;5059358;28;20501;-77
2023/04/22 09:42:55;;;;;;;6.93;6.17;;;28.70;41.40;;;;;;5073572;28;20421;-76
2023/04/22 09:45:28;;;;;;;7.13;6.43;;;28.70;41.20;;;;;;5069005;28;20425;-76
2023/04/22 09:47:58;;;;;;;14.03;5.70;;;28.80;41.40;;;;;;5063435;28;20445;-76
2023/04/22 09:50:28;;;;;;;6.83;5.93;;;28.90;41.30;;;;;;5067482;28;20457;-76
2023/04/22 09:52:59;;;;;;;9.07;6.30;;;29.00;41.00;;;;;;5076177;28;21005;-76
2023/04/22 09:55:31;;;;;;;9.60;6.70;;;29.20;40.90;;;;;;5069497;28;20450;-76
2023/04/22 09:58:12;;;;;;;8.00;6.50;;;29.40;41.10;;;;;;5073526;28;20445;-76
2023/04/22 10:00:42;;;;;;;12.80;6.40;;;29.50;41.20;;;;;;5074895;28;20449;-77
2023/04/22 10:03:10;;;;;;;9.43;5.80;;;29.60;41.20;;;;;;5069551;28;20421;-76
2023/04/22 10:05:39;;;;;;;9.17;6.23;;;29.70;40.90;;;;;;5070155;28;20446;-76
2023/04/22 10:08:09;;;;;;;7.90;5.40;;;29.70;41.00;;;;;;5074684;28;20424;-77
2023/04/22 10:10:38;;;;;;;9.17;5.80;;;29.80;40.90;;;;;;5074070;28;20435;-76
2023/04/22 10:13:06;;;;;;;6.40;5.70;;;29.80;40.70;;;;;;5071392;28;20420;-78
2023/04/22 10:15:35;;;;;;;4.00;2.93;;;29.90;41.20;;;;;;5073626;28;20449;-77
2023/04/22 10:18:05;;;;;;;7.17;3.63;;;28.70;33.00;;;;;;5069761;28;20465;-77
2023/04/22 10:20:33;;;;;;;4.73;3.30;;;26.80;34.60;;;;;;5068416;28;20528;-77
2023/04/22 10:23:03;;;;;;;3.97;3.67;;;25.70;36.80;;;;;;5070053;28;20450;-76
2023/04/22 10:25:33;;;;;;;6.60;3.33;;;25.60;36.40;;;;;;5078378;28;20423;-76
2023/04/22 10:28:02;;;;;;;8.50;4.50;;;25.50;37.60;;;;;;5074370;28;20424;-77
2023/04/22 10:30:30;;;;;;;4.90;3.90;;;25.70;36.00;;;;;;5072804;28;20970;-76
2023/04/22 10:33:35;;;;;;;4.63;3.87;;;24.80;37.60;;;;;;5063253;28;20452;-76
2023/04/22 10:36:08;;;;;;;8.97;3.63;;;24.80;38.70;;;;;;5070181;28;20442;-76
2023/04/22 10:38:36;;;;;;;5.03;3.83;;;24.70;38.40;;;;;;5056782;28;20425;-77
2023/04/22 10:41:05;;;;;;;9.37;3.90;;;24.80;38.40;;;;;;5057446;28;20456;-77
2023/04/22 10:43:43;;;;;;;4.93;3.57;;;24.80;38.50;;;;;;5061483;28;20489;-77
2023/04/22 10:46:51;;;;;;;5.87;4.57;;;24.50;37.60;;;;;;5067720;28;20461;-77
2023/04/22 10:49:20;;;;;;;11.87;4.03;;;23.40;39.00;;;;;;5053425;28;20468;-77
2023/04/22 10:51:49;;;;;;;4.13;3.70;;;23.30;40.30;;;;;;5059454;28;20467;-75
2023/04/22 10:54:51;;;;;;;8.90;4.00;;;23.50;39.70;;;;;;5064940;28;20453;-78
2023/04/22 10:57:21;;;;;;;5.53;4.80;;;23.90;40.30;;;;;;5053556;28;20510;-77
2023/04/22 10:59:51;;;;;;;5.43;4.53;;;24.60;38.60;;;;;;5064220;28;20412;-76
2023/04/22 11:02:20;;;;;;;4.93;4.10;;;24.50;39.90;;;;;;5065943;28;20448;-75
2023/04/22 11:04:48;;;;;;;4.33;3.70;;;24.30;39.10;;;;;;5057985;28;20438;-76
2023/04/22 11:07:19;;;;;;;5.70;3.40;;;24.80;39.80;;;;;;5070017;28;20450;-77
2023/04/22 11:09:49;;;;;;;3.93;3.30;;;26.10;39.10;;;;;;5065788;28;20410;-76
2023/04/22 11:12:43;;;;;;;4.90;2.90;;;27.30;37.10;;;;;;5067519;28;20405;-77
2023/04/22 11:15:12;;;;;;;4.43;3.40;;;28.40;36.40;;;;;;5063016;28;20417;-76
2023/04/22 11:17:43;;;;;;;7.93;3.40;;;29.30;35.10;;;;;;5070601;28;20430;-78
2023/04/22 11:20:12;;;;;;;7.47;3.30;;;29.50;35.20;;;;;;5063096;28;20469;-76
2023/04/22 11:22:42;;;;;;;3.20;2.90;;;30.10;34.30;;;;;;5061509;28;20449;-76
2023/04/22 11:25:10;;;;;;;3.50;2.50;;;31.30;33.20;;;;;;5072758;28;20434;-77
2023/04/22 11:27:38;;;;;;;9.83;3.17;;;32.30;32.00;;;;;;5072846;28;20520;-75
2023/04/22 11:30:09;;;;;;;7.77;2.63;;;33.30;31.00;;;;;;5060628;28;20466;-76
2023/04/22 11:32:38;;;;;;;2.93;2.77;;;34.00;30.00;;;;;;5064709;28;20438;-76
2023/04/22 11:35:08;;;;;;;5.47;2.77;;;34.50;29.60;;;;;;5069898;28;20452;-76
2023/04/22 11:37:40;;;;;;;7.50;2.80;;;34.80;29.50;;;;;;5072552;28;20438;-76
2023/04/22 11:40:09;;;;;;;4.70;3.47;;;35.00;29.10;;;;;;5068783;28;20465;-76
2023/04/22 11:42:56;;;;;;;4.57;2.53;;;35.40;28.70;;;;;;5065842;28;20796;-78
2023/04/22 11:45:26;;;;;;;3.90;2.40;;;34.90;28.80;;;;;;5073012;28;20451;-80
2023/04/22 11:47:55;;;;;;;3.10;2.40;;;33.70;27.50;;;;;;5065106;28;20955;-77
2023/04/22 11:50:24;;;;;;;3.10;2.77;;;33.50;27.50;;;;;;5072209;28;20461;-78
2023/04/22 11:52:53;;;;;;;3.00;2.40;;;33.60;27.00;;;;;;5060496;28;20442;-79
2023/04/22 11:55:22;;;;;;;5.17;2.57;;;33.60;27.10;;;;;;5060712;28;20426;-78
2023/04/22 11:57:55;;;;;;;4.43;2.47;;;33.80;26.30;;;;;;5069954;28;20436;-80
2023/04/22 12:00:23;;;;;;;2.70;2.50;;;34.00;26.90;;;;;;5068737;28;20469;-77
2023/04/22 12:03:02;;;;;;;2.63;2.30;;;35.40;27.60;;;;;;5065572;28;20477;-78
2023/04/22 12:05:38;;;;;;;3.47;2.47;;;36.50;26.70;;;;;;5078828;28;20465;-78
2023/04/22 12:08:08;;;;;;;2.03;1.93;;;36.90;25.20;;;;;;5079795;28;20507;-79
2023/04/22 12:10:42;;;;;;;2.23;2.13;;;36.60;25.00;;;;;;5079885;28;20540;-79
2023/04/22 12:13:10;;;;;;;2.63;2.27;;;36.00;24.60;;;;;;5076044;28;20491;-81
2023/04/22 12:15:42;;;;;;;5.20;2.50;;;35.10;25.70;;;;;;5070609;28;20520;-77
2023/04/22 12:18:12;;;;;;;4.50;3.10;;;34.50;26.60;;;;;;5070731;28;20442;-77
2023/04/22 12:20:40;;;;;;;4.50;3.23;;;33.80;27.80;;;;;;5063577;28;20481;-77
2023/04/22 12:23:14;;;;;;;15.90;3.50;;;33.20;29.00;;;;;;5067901;28;20477;-76
2023/04/22 12:25:42;;;;;;;8.80;3.70;;;32.70;30.00;;;;;;5071616;28;20866;-78
2023/04/22 12:28:11;;;;;;;10.90;3.57;;;32.30;30.60;;;;;;5064709;28;20478;-78
2023/04/22 12:30:39;;;;;;;6.00;3.67;;;31.90;31.30;;;;;;5069444;28;20489;-78
2023/04/22 12:33:08;;;;;;;6.87;3.87;;;31.70;32.20;;;;;;5066903;28;20426;-77
2023/04/22 12:35:37;;;;;;;4.37;3.20;;;31.40;33.00;;;;;;5067498;28;20453;-77
2023/04/22 12:38:04;;;;;;;4.20;3.40;;;31.10;33.40;;;;;;5069126;28;20445;-77
2023/04/22 12:40:32;;;;;;;5.00;3.50;;;31.00;33.80;;;;;;5063651;28;20458;-77
2023/04/22 12:43:04;;;;;;;3.33;2.60;;;30.90;34.20;;;;;;5071118;28;20466;-77
2023/04/22 12:45:32;;;;;;;4.23;3.20;;;30.70;34.40;;;;;;5070646;28;20507;-78
2023/04/22 12:48:01;;;;;;;3.87;3.43;;;30.50;34.70;;;;;;5064466;28;20453;-79
2023/04/22 12:50:29;;;;;;;6.23;2.83;;;30.40;35.10;;;;;;5057078;28;20478;-77
2023/04/22 12:52:58;;;;;;;2.83;2.60;;;30.30;35.10;;;;;;5055165;28;20438;-79
2023/04/22 12:55:27;;;;;;;5.40;3.37;;;30.20;35.40;;;;;;5061846;28;20441;-80